Time;durP1;ratioP1;P1;durP2;ratioP2;P2;SDS_P1;SDS_P2;PMS_P1;PMS_P2;Temp;Humidity;BMP_temperature;BMP_pressure;BME280_temperature;BME280_humidity;BME280_pressure;Samples;Min_cycle;Max_cycle;Signal;HPM_P1;HPM_P2
2021/08/12 00:01:56;;;;;;;8.38;4.82;;;;;;;;;;4999149;28;20058;-82
2021/08/12 00:04:24;;;;;;;11.55;5.43;;;;;;;;;;5000189;28;20057;-81
2021/08/12 00:06:50;;;;;;;10.60;5.90;;;;;;;;;;5000851;28;20384;-81
2021/08/12 00:09:17;;;;;;;8.13;5.18;;;;;;;;;;5016237;28;20053;-82
2021/08/12 00:11:45;;;;;;;10.13;5.00;;;;;;;;;;5015960;28;20061;-81
2021/08/12 00:14:12;;;;;;;7.80;4.90;;;;;;;;;;5000661;28;20043;-81
2021/08/12 00:16:39;;;;;;;6.00;4.70;;;;;;;;;;4982846;28;20108;-81
2021/08/12 00:19:11;;;;;;;8.98;5.30;;;;;;;;;;4999025;28;20046;-80
2021/08/12 00:21:38;;;;;;;7.45;5.03;;;;;;;;;;4994971;28;20145;-80
2021/08/12 00:24:05;;;;;;;8.68;5.20;;;;;;;;;;4995551;28;20062;-80
2021/08/12 00:26:32;;;;;;;11.45;5.15;;;;;;;;;;4995473;28;20053;-80
2021/08/12 00:29:00;;;;;;;6.95;4.22;;;;;;;;;;4978130;28;20050;-81
2021/08/12 00:31:27;;;;;;;7.32;5.03;;;;;;;;;;4996065;28;20053;-80
2021/08/12 00:33:54;;;;;;;8.48;5.30;;;;;;;;;;4998203;28;20430;-81
2021/08/12 00:36:20;;;;;;;8.07;5.35;;;;;;;;;;4982122;28;20049;-81
2021/08/12 00:38:47;;;;;;;6.63;4.93;;;;;;;;;;4983011;28;20069;-80
2021/08/12 00:41:14;;;;;;;7.38;4.75;;;;;;;;;;5000318;28;20054;-80
2021/08/12 00:43:41;;;;;;;8.43;4.60;;;;;;;;;;4999577;28;20073;-81
2021/08/12 00:46:09;;;;;;;8.98;5.60;;;;;;;;;;4999168;28;20042;-81
2021/08/12 00:48:35;;;;;;;8.90;4.78;;;;;;;;;;5000028;28;20068;-81
2021/08/12 00:51:03;;;;;;;9.95;5.78;;;;;;;;;;4999497;28;20049;-80
2021/08/12 00:53:30;;;;;;;9.30;5.20;;;;;;;;;;5016204;28;20046;-81
2021/08/12 00:55:56;;;;;;;6.57;4.90;;;;;;;;;;4999525;28;20054;-81
2021/08/12 00:58:23;;;;;;;8.43;5.00;;;;;;;;;;5000320;28;20046;-81
2021/08/12 01:00:50;;;;;;;7.75;5.43;;;;;;;;;;5002740;28;20053;-81
2021/08/12 01:03:19;;;;;;;10.30;5.65;;;;;;;;;;5002575;28;20046;-81
2021/08/12 01:05:47;;;;;;;8.77;4.72;;;;;;;;;;4999931;28;20054;-80
2021/08/12 01:08:15;;;;;;;10.70;5.00;;;;;;;;;;4998277;28;20048;-81
2021/08/12 01:10:46;;;;;;;8.07;5.80;;;;;;;;;;4997041;28;20046;-81
2021/08/12 01:13:17;;;;;;;8.23;5.50;;;;;;;;;;4998222;28;20483;-80
2021/08/12 01:15:48;;;;;;;8.80;5.00;;;;;;;;;;4998498;28;20143;-80
2021/08/12 01:18:33;;;;;;;7.28;5.18;;;;;;;;;;4998415;28;20081;-81
2021/08/12 01:21:25;;;;;;;6.35;4.47;;;;;;;;;;4997695;28;20048;-80
2021/08/12 01:23:53;;;;;;;8.40;4.75;;;;;;;;;;4993276;28;20046;-81
2021/08/12 01:26:21;;;;;;;12.82;6.47;;;;;;;;;;5012975;28;20050;-80
2021/08/12 01:28:49;;;;;;;9.02;4.95;;;;;;;;;;4996830;28;20390;-80
2021/08/12 01:31:40;;;;;;;7.95;4.90;;;;;;;;;;4998003;28;20049;-81
2021/08/12 01:34:11;;;;;;;6.82;4.93;;;;;;;;;;4999175;28;20042;-80
2021/08/12 01:36:41;;;;;;;7.32;5.00;;;;;;;;;;4998598;28;20137;-80
2021/08/12 01:39:11;;;;;;;7.88;5.15;;;;;;;;;;4998185;28;20113;-81
2021/08/12 01:41:38;;;;;;;7.40;4.78;;;;;;;;;;4998210;28;20082;-81
2021/08/12 01:44:05;;;;;;;7.55;4.95;;;;;;;;;;4996154;28;20057;-80
2021/08/12 01:46:33;;;;;;;11.52;5.07;;;;;;;;;;4998461;28;20058;-80
2021/08/12 01:49:03;;;;;;;9.23;4.50;;;;;;;;;;4998895;28;20042;-81
2021/08/12 01:51:31;;;;;;;6.25;4.45;;;;;;;;;;4999411;28;20046;-80
2021/08/12 01:54:00;;;;;;;7.28;4.97;;;;;;;;;;5014857;28;20062;-80
2021/08/12 01:56:29;;;;;;;7.78;5.20;;;;;;;;;;4999308;28;20053;-80
2021/08/12 01:58:58;;;;;;;6.30;4.70;;;;;;;;;;4999207;28;20411;-80
2021/08/12 02:01:25;;;;;;;8.27;5.38;;;;;;;;;;4999503;28;20051;-80
2021/08/12 02:03:52;;;;;;;9.05;4.68;;;;;;;;;;4999528;28;20053;-80
2021/08/12 02:06:21;;;;;;;8.35;4.95;;;;;;;;;;4998748;28;20057;-80
2021/08/12 02:08:47;;;;;;;8.00;5.45;;;;;;;;;;4998358;28;20050;-80
2021/08/12 02:11:15;;;;;;;8.38;4.72;;;;;;;;;;4999645;28;20058;-80
2021/08/12 02:13:42;;;;;;;9.20;5.10;;;;;;;;;;4998906;28;20053;-80
2021/08/12 02:16:09;;;;;;;8.73;5.05;;;;;;;;;;4997558;28;20518;-81
2021/08/12 02:18:36;;;;;;;10.70;5.10;;;;;;;;;;4998159;28;20054;-80
2021/08/12 02:21:05;;;;;;;8.88;5.15;;;;;;;;;;4999043;28;20054;-81
2021/08/12 02:23:34;;;;;;;10.07;5.78;;;;;;;;;;5001358;28;20050;-79
2021/08/12 02:26:04;;;;;;;7.95;4.38;;;;;;;;;;4997412;28;20076;-80
2021/08/12 02:28:34;;;;;;;7.82;5.15;;;;;;;;;;4996923;28;20057;-79
2021/08/12 02:31:03;;;;;;;7.10;4.95;;;;;;;;;;4998276;28;20050;-81
2021/08/12 02:33:34;;;;;;;7.30;4.95;;;;;;;;;;4998927;28;20042;-80
2021/08/12 02:36:02;;;;;;;11.32;4.90;;;;;;;;;;4978507;28;20047;-79
2021/08/12 02:38:29;;;;;;;9.48;5.22;;;;;;;;;;4992043;28;20047;-79
2021/08/12 02:40:57;;;;;;;7.93;4.28;;;;;;;;;;4998586;28;20046;-79
2021/08/12 02:43:24;;;;;;;7.63;5.07;;;;;;;;;;4996651;28;20401;-81
2021/08/12 02:45:53;;;;;;;5.22;4.07;;;;;;;;;;4979035;28;20057;-79
2021/08/12 02:48:22;;;;;;;7.15;5.03;;;;;;;;;;4978808;28;20050;-78
2021/08/12 02:50:50;;;;;;;7.95;4.82;;;;;;;;;;4978785;28;20053;-80
2021/08/12 02:53:16;;;;;;;11.02;4.65;;;;;;;;;;4991873;28;20065;-79
2021/08/12 02:55:43;;;;;;;7.95;4.88;;;;;;;;;;4998034;28;20145;-80
2021/08/12 02:58:11;;;;;;;7.32;4.72;;;;;;;;;;4998644;28;20050;-79
2021/08/12 03:00:38;;;;;;;7.13;4.60;;;;;;;;;;4998714;28;20502;-79
2021/08/12 03:03:07;;;;;;;10.05;6.10;;;;;;;;;;4997673;28;20097;-80
2021/08/12 03:05:34;;;;;;;7.35;5.10;;;;;;;;;;4998153;28;20058;-80
2021/08/12 03:08:02;;;;;;;7.25;4.55;;;;;;;;;;4998471;28;20065;-80
2021/08/12 03:10:29;;;;;;;7.47;4.45;;;;;;;;;;4998481;28;20046;-79
2021/08/12 03:12:57;;;;;;;7.25;4.90;;;;;;;;;;4996159;28;20058;-81
2021/08/12 03:15:24;;;;;;;6.15;4.40;;;;;;;;;;4998239;28;20058;-79
2021/08/12 03:17:50;;;;;;;8.05;5.10;;;;;;;;;;4999054;28;20050;-80
2021/08/12 03:20:18;;;;;;;8.77;4.60;;;;;;;;;;4998370;28;20132;-80
2021/08/12 03:22:45;;;;;;;7.18;4.45;;;;;;;;;;4998908;28;20054;-80
2021/08/12 03:25:12;;;;;;;5.93;4.47;;;;;;;;;;4998793;28;20061;-81
2021/08/12 03:27:39;;;;;;;7.43;5.15;;;;;;;;;;4999597;28;20057;-81
2021/08/12 03:30:06;;;;;;;8.07;4.95;;;;;;;;;;5015056;28;20051;-80
2021/08/12 03:32:33;;;;;;;9.00;5.25;;;;;;;;;;4996611;28;20043;-79
2021/08/12 03:35:00;;;;;;;6.25;4.80;;;;;;;;;;4996685;28;20054;-79
2021/08/12 03:37:27;;;;;;;7.65;5.68;;;;;;;;;;4994884;28;20086;-79
2021/08/12 03:39:54;;;;;;;7.35;4.57;;;;;;;;;;4996645;28;20050;-81
2021/08/12 03:42:21;;;;;;;7.35;5.45;;;;;;;;;;4996750;28;20058;-80
2021/08/12 03:44:47;;;;;;;9.68;5.40;;;;;;;;;;4994418;28;20046;-80
2021/08/12 03:47:14;;;;;;;7.63;5.38;;;;;;;;;;4994739;28;20081;-80
2021/08/12 03:49:41;;;;;;;8.50;5.53;;;;;;;;;;4996080;28;20411;-80
2021/08/12 03:52:08;;;;;;;8.38;5.32;;;;;;;;;;4995006;28;20046;-80
2021/08/12 03:54:36;;;;;;;7.90;5.07;;;;;;;;;;4979225;28;20046;-80
2021/08/12 03:57:04;;;;;;;8.82;5.18;;;;;;;;;;4996370;28;20057;-80
2021/08/12 03:59:31;;;;;;;7.88;5.13;;;;;;;;;;4996063;28;20507;-81
2021/08/12 04:01:57;;;;;;;7.68;4.97;;;;;;;;;;4995898;28;20054;-79
2021/08/12 04:04:24;;;;;;;6.78;5.43;;;;;;;;;;4995135;28;20057;-79
2021/08/12 04:06:50;;;;;;;11.77;5.65;;;;;;;;;;4995795;28;20072;-80
2021/08/12 04:09:17;;;;;;;9.40;4.97;;;;;;;;;;4999848;28;20047;-80
2021/08/12 04:11:45;;;;;;;12.07;5.40;;;;;;;;;;4998193;28;20057;-80
2021/08/12 04:14:12;;;;;;;11.90;5.60;;;;;;;;;;5000042;28;20046;-79
2021/08/12 04:16:38;;;;;;;8.50;6.10;;;;;;;;;;4999536;28;20046;-80
2021/08/12 04:19:05;;;;;;;8.80;5.35;;;;;;;;;;4999323;28;20042;-80
2021/08/12 04:21:32;;;;;;;7.38;5.35;;;;;;;;;;4999271;28;20057;-79
2021/08/12 04:23:59;;;;;;;7.30;5.40;;;;;;;;;;4999140;28;20046;-80
2021/08/12 04:26:28;;;;;;;9.85;5.78;;;;;;;;;;4978741;28;20105;-79
2021/08/12 04:28:56;;;;;;;9.90;5.80;;;;;;;;;;4987732;28;20046;-80
2021/08/12 04:31:23;;;;;;;7.57;5.65;;;;;;;;;;4998960;28;20049;-80
2021/08/12 04:33:50;;;;;;;6.07;5.10;;;;;;;;;;4990713;28;20054;-80
2021/08/12 04:36:17;;;;;;;8.30;6.30;;;;;;;;;;4989566;28;20054;-81
2021/08/12 04:38:44;;;;;;;9.30;6.15;;;;;;;;;;4980375;28;20375;-81
2021/08/12 04:41:11;;;;;;;8.20;5.47;;;;;;;;;;4996803;28;20053;-81
2021/08/12 04:43:37;;;;;;;8.52;5.35;;;;;;;;;;4997870;28;20062;-81
2021/08/12 04:46:05;;;;;;;7.10;5.45;;;;;;;;;;4998929;28;20053;-81
2021/08/12 04:48:32;;;;;;;6.63;5.30;;;;;;;;;;4999251;28;20050;-81
2021/08/12 04:50:59;;;;;;;6.78;6.00;;;;;;;;;;4997665;28;20411;-81
2021/08/12 04:53:26;;;;;;;7.82;5.70;;;;;;;;;;4982472;28;20061;-81
2021/08/12 04:55:52;;;;;;;7.07;5.28;;;;;;;;;;4998093;28;20403;-81
2021/08/12 04:58:19;;;;;;;9.90;5.30;;;;;;;;;;4981500;28;20053;-82
2021/08/12 05:00:46;;;;;;;10.80;5.38;;;;;;;;;;4998728;28;20059;-81
2021/08/12 05:03:14;;;;;;;7.35;5.25;;;;;;;;;;4997594;28;20050;-81
2021/08/12 05:05:41;;;;;;;7.68;5.00;;;;;;;;;;4996636;28;20102;-82
2021/08/12 05:08:07;;;;;;;7.13;5.80;;;;;;;;;;4996584;28;20423;-82
2021/08/12 05:10:34;;;;;;;7.43;5.00;;;;;;;;;;5003992;28;20050;-82
2021/08/12 05:13:01;;;;;;;7.53;5.35;;;;;;;;;;4996440;28;20057;-82
2021/08/12 05:15:29;;;;;;;9.38;5.32;;;;;;;;;;4996484;28;20054;-82
2021/08/12 05:17:56;;;;;;;6.28;5.63;;;;;;;;;;4998034;28;20109;-82
2021/08/12 05:20:24;;;;;;;8.80;5.40;;;;;;;;;;4998133;28;20042;-82
2021/08/12 05:22:50;;;;;;;9.15;5.95;;;;;;;;;;4998030;28;20065;-82
2021/08/12 05:25:17;;;;;;;7.25;5.47;;;;;;;;;;4997389;28;20057;-82
2021/08/12 05:27:44;;;;;;;6.43;4.60;;;;;;;;;;4996510;28;20499;-82
2021/08/12 05:30:11;;;;;;;5.65;5.00;;;;;;;;;;4998705;28;20050;-83
2021/08/12 05:32:38;;;;;;;9.88;5.78;;;;;;;;;;5013622;28;20050;-82
2021/08/12 05:35:06;;;;;;;7.97;5.20;;;;;;;;;;4998577;28;20056;-83
2021/08/12 05:37:34;;;;;;;10.55;5.40;;;;;;;;;;4998716;28;20050;-82
2021/08/12 05:40:00;;;;;;;7.93;5.70;;;;;;;;;;4998845;28;20667;-83
2021/08/12 05:42:27;;;;;;;8.73;5.90;;;;;;;;;;5001455;28;20050;-83
2021/08/12 05:44:54;;;;;;;6.95;5.15;;;;;;;;;;4998736;28;20101;-82
2021/08/12 05:47:21;;;;;;;7.43;5.50;;;;;;;;;;4979244;28;20078;-82
2021/08/12 05:49:48;;;;;;;8.43;5.10;;;;;;;;;;4996199;28;20054;-82
2021/08/12 05:52:14;;;;;;;9.05;5.53;;;;;;;;;;4995242;28;20078;-83
2021/08/12 05:54:42;;;;;;;8.13;4.88;;;;;;;;;;4994736;28;20045;-82
2021/08/12 05:57:09;;;;;;;8.40;5.60;;;;;;;;;;4996547;28;20053;-83
2021/08/12 05:59:36;;;;;;;10.93;7.15;;;;;;;;;;4995716;28;20088;-83
2021/08/12 06:02:03;;;;;;;13.20;7.05;;;;;;;;;;4996529;28;20062;-82
2021/08/12 06:04:30;;;;;;;10.73;5.05;;;;;;;;;;4995734;28;20085;-83
2021/08/12 06:06:57;;;;;;;8.90;4.75;;;;;;;;;;4996112;28;20058;-82
2021/08/12 06:09:24;;;;;;;8.50;5.68;;;;;;;;;;4995981;28;20050;-82
2021/08/12 06:11:52;;;;;;;8.20;5.60;;;;;;;;;;4997170;28;20525;-82
2021/08/12 06:14:18;;;;;;;9.80;5.85;;;;;;;;;;4995064;28;20050;-82
2021/08/12 06:16:45;;;;;;;9.07;5.55;;;;;;;;;;4996104;28;20148;-82
2021/08/12 06:19:12;;;;;;;12.57;6.10;;;;;;;;;;4995121;28;20053;-80
2021/08/12 06:21:39;;;;;;;7.88;5.75;;;;;;;;;;4996916;28;20057;-80
2021/08/12 06:24:06;;;;;;;8.18;6.00;;;;;;;;;;4995758;28;20054;-81
2021/08/12 06:26:33;;;;;;;8.57;6.00;;;;;;;;;;4997056;28;20057;-82
2021/08/12 06:29:01;;;;;;;9.15;6.25;;;;;;;;;;5011990;28;20046;-84
2021/08/12 06:31:27;;;;;;;8.70;5.43;;;;;;;;;;4978334;28;20062;-80
2021/08/12 06:33:54;;;;;;;8.38;6.10;;;;;;;;;;4995714;28;20053;-81
2021/08/12 06:36:20;;;;;;;9.30;6.38;;;;;;;;;;4996908;28;20050;-80
2021/08/12 06:38:47;;;;;;;13.55;6.95;;;;;;;;;;4996734;28;20042;-80
2021/08/12 06:41:14;;;;;;;7.82;6.10;;;;;;;;;;4995665;28;20061;-80
2021/08/12 06:43:41;;;;;;;11.52;5.68;;;;;;;;;;4996863;28;20058;-81
2021/08/12 06:46:09;;;;;;;9.38;5.88;;;;;;;;;;4995674;28;20064;-81
2021/08/12 06:48:36;;;;;;;7.90;6.00;;;;;;;;;;4996772;28;20050;-81
2021/08/12 06:51:02;;;;;;;8.70;5.40;;;;;;;;;;4994926;28;20050;-81
2021/08/12 06:53:29;;;;;;;8.55;5.30;;;;;;;;;;4994237;28;20050;-81
2021/08/12 06:55:55;;;;;;;8.05;6.18;;;;;;;;;;4996532;28;20050;-81
2021/08/12 06:58:22;;;;;;;7.50;5.57;;;;;;;;;;4998592;28;20054;-81
2021/08/12 07:00:49;;;;;;;7.20;5.57;;;;;;;;;;4997144;28;20050;-81
2021/08/12 07:03:17;;;;;;;14.20;6.88;;;;;;;;;;4997235;28;20430;-81
2021/08/12 07:05:43;;;;;;;7.50;5.90;;;;;;;;;;4995798;28;20050;-81
2021/08/12 07:08:10;;;;;;;10.18;6.95;;;;;;;;;;4995193;28;20488;-82
2021/08/12 07:10:37;;;;;;;9.50;6.38;;;;;;;;;;4994204;28;20057;-81
2021/08/12 07:13:04;;;;;;;8.55;6.03;;;;;;;;;;4996300;28;20105;-82
2021/08/12 07:15:31;;;;;;;9.15;7.38;;;;;;;;;;4997133;28;20076;-82
2021/08/12 07:17:58;;;;;;;10.63;7.28;;;;;;;;;;4998126;28;20462;-81
2021/08/12 07:20:26;;;;;;;10.40;7.00;;;;;;;;;;4997623;28;20053;-82
2021/08/12 07:22:52;;;;;;;13.75;8.45;;;;;;;;;;4996914;28;20054;-82
2021/08/12 07:25:21;;;;;;;10.63;7.78;;;;;;;;;;4997706;28;20065;-81
2021/08/12 07:27:49;;;;;;;13.75;8.15;;;;;;;;;;4997565;28;20503;-82
2021/08/12 07:30:16;;;;;;;8.55;7.13;;;;;;;;;;4996765;28;20046;-82
2021/08/12 07:32:43;;;;;;;8.48;7.47;;;;;;;;;;4995826;28;20453;-81
2021/08/12 07:35:10;;;;;;;10.93;7.07;;;;;;;;;;4996454;28;20054;-81
2021/08/12 07:37:38;;;;;;;9.63;7.40;;;;;;;;;;4996091;28;20050;-82
2021/08/12 07:40:06;;;;;;;8.38;7.32;;;;;;;;;;4996241;28;20049;-82
2021/08/12 07:42:33;;;;;;;8.93;8.00;;;;;;;;;;4994767;28;20038;-82
2021/08/12 07:45:02;;;;;;;9.27;7.40;;;;;;;;;;4995826;28;20487;-82
2021/08/12 07:47:30;;;;;;;9.65;8.57;;;;;;;;;;4996118;28;20051;-81
2021/08/12 07:49:57;;;;;;;7.95;7.15;;;;;;;;;;4999236;28;20048;-82
2021/08/12 07:52:24;;;;;;;10.25;9.18;;;;;;;;;;4999592;28;20081;-83
2021/08/12 07:54:52;;;;;;;12.05;9.18;;;;;;;;;;4998118;28;20050;-83
2021/08/12 07:57:19;;;;;;;9.90;9.00;;;;;;;;;;4998110;28;20097;-83
2021/08/12 07:59:46;;;;;;;10.50;9.50;;;;;;;;;;4998354;28;20058;-83
2021/08/12 08:02:13;;;;;;;10.50;9.35;;;;;;;;;;4996067;28;20050;-83
2021/08/12 08:04:43;;;;;;;9.90;9.10;;;;;;;;;;5000072;28;20054;-84
2021/08/12 08:07:10;;;;;;;14.95;11.25;;;;;;;;;;4999796;28;20042;-84
2021/08/12 08:09:36;;;;;;;11.55;10.55;;;;;;;;;;4995604;28;20072;-83
2021/08/12 08:12:06;;;;;;;10.90;9.90;;;;;;;;;;4996501;28;20399;-84
2021/08/12 08:14:33;;;;;;;16.33;13.93;;;;;;;;;;4995260;28;20042;-83
2021/08/12 08:17:00;;;;;;;12.98;11.82;;;;;;;;;;4996328;28;20051;-84
2021/08/12 08:19:29;;;;;;;13.13;11.32;;;;;;;;;;4995937;28;20050;-84
2021/08/12 08:21:56;;;;;;;11.00;10.10;;;;;;;;;;4995120;28;20061;-83
2021/08/12 08:24:22;;;;;;;11.77;10.85;;;;;;;;;;4996105;28;20066;-84
2021/08/12 08:26:49;;;;;;;12.82;11.45;;;;;;;;;;4996542;28;20053;-83
2021/08/12 08:29:18;;;;;;;9.85;8.98;;;;;;;;;;4980794;28;20058;-84
2021/08/12 08:31:46;;;;;;;10.35;8.32;;;;;;;;;;4995898;28;20053;-84
2021/08/12 08:34:13;;;;;;;9.73;8.73;;;;;;;;;;4995357;28;20082;-84
2021/08/12 08:36:39;;;;;;;9.13;8.05;;;;;;;;;;4996800;28;20046;-84
2021/08/12 08:39:06;;;;;;;10.48;7.95;;;;;;;;;;4995965;28;20050;-85
2021/08/12 08:41:33;;;;;;;9.00;7.65;;;;;;;;;;4997334;28;20053;-83
2021/08/12 08:44:00;;;;;;;10.93;9.82;;;;;;;;;;4998401;28;20125;-83
2021/08/12 08:46:28;;;;;;;11.80;10.75;;;;;;;;;;5000061;28;20046;-84
2021/08/12 08:48:56;;;;;;;10.23;9.32;;;;;;;;;;5001268;28;20353;-84
2021/08/12 08:51:23;;;;;;;10.00;7.95;;;;;;;;;;4997804;28;20109;-84
2021/08/12 08:53:51;;;;;;;9.60;8.57;;;;;;;;;;5000131;28;20061;-84
2021/08/12 08:56:18;;;;;;;11.10;8.82;;;;;;;;;;5005140;28;20082;-84
2021/08/12 08:58:46;;;;;;;9.02;8.23;;;;;;;;;;5003545;28;20061;-84
2021/08/12 09:01:12;;;;;;;11.63;10.52;;;;;;;;;;5002175;28;20053;-84
2021/08/12 09:03:40;;;;;;;9.60;8.70;;;;;;;;;;5002118;28;20058;-83
2021/08/12 09:06:07;;;;;;;11.63;10.60;;;;;;;;;;5003390;28;20046;-83
2021/08/12 09:08:34;;;;;;;11.95;10.93;;;;;;;;;;5002869;28;20046;-83
2021/08/12 09:11:01;;;;;;;11.52;10.43;;;;;;;;;;5003959;28;20058;-83
2021/08/12 09:13:29;;;;;;;11.10;8.80;;;;;;;;;;5002588;28;20061;-84
2021/08/12 09:15:56;;;;;;;11.35;10.40;;;;;;;;;;5002624;28;20081;-83
2021/08/12 09:18:24;;;;;;;12.55;11.48;;;;;;;;;;5003833;28;20049;-83
2021/08/12 09:20:54;;;;;;;10.52;7.95;;;;;;;;;;4969221;28;20049;-83
2021/08/12 09:23:25;;;;;;;12.02;10.95;;;;;;;;;;5000332;28;20417;-83
2021/08/12 09:25:52;;;;;;;11.65;10.55;;;;;;;;;;4996800;28;20050;-83
2021/08/12 09:28:21;;;;;;;14.00;12.88;;;;;;;;;;4995783;28;20483;-82
2021/08/12 09:31:12;;;;;;;11.77;10.65;;;;;;;;;;4998008;28;20491;-82
2021/08/12 09:33:52;;;;;;;9.38;8.57;;;;;;;;;;4978615;28;20051;-82
2021/08/12 09:36:39;;;;;;;12.85;11.75;;;;;;;;;;4979133;28;20047;-82
2021/08/12 09:39:11;;;;;;;16.00;14.48;;;;;;;;;;4979234;28;20051;-83
2021/08/12 09:41:40;;;;;;;10.80;9.80;;;;;;;;;;4978986;28;20099;-82
2021/08/12 09:44:06;;;;;;;10.20;9.05;;;;;;;;;;4979243;28;20051;-82
2021/08/12 09:46:35;;;;;;;10.77;9.73;;;;;;;;;;4979067;28;20423;-82
2021/08/12 09:49:03;;;;;;;10.30;9.40;;;;;;;;;;4979327;28;20105;-83
2021/08/12 09:51:32;;;;;;;9.82;9.02;;;;;;;;;;4996680;28;20042;-83
2021/08/12 09:54:05;;;;;;;12.68;11.50;;;;;;;;;;4998727;28;20410;-83
2021/08/12 09:56:32;;;;;;;10.77;9.88;;;;;;;;;;4998023;28;20042;-81
2021/08/12 09:59:06;;;;;;;10.52;9.63;;;;;;;;;;4998419;28;20057;-83
2021/08/12 10:01:33;;;;;;;10.52;9.63;;;;;;;;;;4999358;28;20097;-82
2021/08/12 10:04:01;;;;;;;10.65;9.55;;;;;;;;;;4997802;28;20076;-82
2021/08/12 10:06:30;;;;;;;10.00;9.00;;;;;;;;;;4996778;28;20046;-83
2021/08/12 10:08:57;;;;;;;10.48;9.45;;;;;;;;;;4997033;28;20074;-82
2021/08/12 10:11:28;;;;;;;10.00;8.75;;;;;;;;;;4997989;28;20407;-83
2021/08/12 10:13:56;;;;;;;10.88;9.80;;;;;;;;;;4997996;28;20054;-82
2021/08/12 10:16:23;;;;;;;8.50;7.70;;;;;;;;;;4997800;28;20372;-82
2021/08/12 10:18:50;;;;;;;10.43;9.45;;;;;;;;;;4997651;28;20046;-82
2021/08/12 10:21:18;;;;;;;9.27;8.32;;;;;;;;;;4997626;28;20050;-83
2021/08/12 10:23:47;;;;;;;10.98;9.13;;;;;;;;;;4996876;28;20050;-83
2021/08/12 10:26:14;;;;;;;10.98;10.02;;;;;;;;;;4996678;28;20050;-83
2021/08/12 10:28:43;;;;;;;10.90;9.98;;;;;;;;;;4994827;28;20062;-84
2021/08/12 10:31:14;;;;;;;13.63;8.82;;;;;;;;;;4996424;28;20058;-83
2021/08/12 10:33:41;;;;;;;11.85;10.82;;;;;;;;;;4996406;28;20053;-83
2021/08/12 10:36:08;;;;;;;12.90;11.90;;;;;;;;;;4995225;28;20117;-83
2021/08/12 10:38:36;;;;;;;10.88;9.98;;;;;;;;;;4995088;28;20053;-83
2021/08/12 10:41:03;;;;;;;16.67;15.57;;;;;;;;;;4996790;28;20042;-82
2021/08/12 10:43:31;;;;;;;11.20;10.20;;;;;;;;;;4998497;28;20403;-82
2021/08/12 10:46:00;;;;;;;13.35;12.20;;;;;;;;;;4999386;28;20046;-82
2021/08/12 10:48:28;;;;;;;9.98;8.98;;;;;;;;;;4998260;28;20046;-83
2021/08/12 10:51:10;;;;;;;9.65;8.77;;;;;;;;;;4999276;28;20050;-83
2021/08/12 10:53:37;;;;;;;11.40;10.40;;;;;;;;;;4998387;28;20110;-83
2021/08/12 10:56:09;;;;;;;11.98;10.88;;;;;;;;;;4999467;28;20050;-83
2021/08/12 10:58:44;;;;;;;9.30;8.60;;;;;;;;;;4996392;28;20050;-83
2021/08/12 11:01:13;;;;;;;11.90;10.80;;;;;;;;;;4997228;28;20046;-82
2021/08/12 11:03:46;;;;;;;11.48;10.48;;;;;;;;;;4995786;28;20046;-83
2021/08/12 11:06:15;;;;;;;13.10;11.57;;;;;;;;;;4997056;28;20081;-83
2021/08/12 11:08:57;;;;;;;11.27;10.27;;;;;;;;;;4995267;28;20050;-83
2021/08/12 11:11:56;;;;;;;13.00;12.02;;;;;;;;;;4995568;28;20050;-83
2021/08/12 11:14:51;;;;;;;12.48;11.07;;;;;;;;;;4990303;28;20137;-82
2021/08/12 11:17:19;;;;;;;11.55;10.45;;;;;;;;;;4997842;28;20074;-82
2021/08/12 11:19:46;;;;;;;10.13;9.23;;;;;;;;;;4998482;28;20054;-82
2021/08/12 11:22:34;;;;;;;11.60;10.68;;;;;;;;;;4998280;28;20504;-82
2021/08/12 11:25:02;;;;;;;14.30;13.00;;;;;;;;;;4998552;28;20050;-83
2021/08/12 11:27:42;;;;;;;13.48;12.48;;;;;;;;;;4997482;28;20047;-82
2021/08/12 11:30:45;;;;;;;14.45;13.35;;;;;;;;;;4998824;28;20109;-82
2021/08/12 11:33:45;;;;;;;10.88;9.98;;;;;;;;;;4998436;28;20411;-83
2021/08/12 11:36:22;;;;;;;11.68;10.77;;;;;;;;;;4998037;28;20050;-83
2021/08/12 11:38:57;;;;;;;10.85;9.88;;;;;;;;;;4996549;28;20431;-83
2021/08/12 11:41:25;;;;;;;14.02;12.75;;;;;;;;;;4985226;28;20502;-82
2021/08/12 11:43:53;;;;;;;10.40;9.35;;;;;;;;;;4990231;28;20047;-82
2021/08/12 11:46:20;;;;;;;10.00;8.70;;;;;;;;;;4983647;28;20069;-82
2021/08/12 11:48:49;;;;;;;10.63;9.63;;;;;;;;;;4989511;28;20053;-82
2021/08/12 11:51:17;;;;;;;9.15;8.35;;;;;;;;;;4991053;28;20093;-82
2021/08/12 11:53:49;;;;;;;11.77;10.80;;;;;;;;;;4987039;28;20049;-83
2021/08/12 11:56:19;;;;;;;11.85;10.85;;;;;;;;;;4985174;28;20062;-82
2021/08/12 11:58:47;;;;;;;11.93;10.75;;;;;;;;;;4979094;28;20051;-82
2021/08/12 12:01:15;;;;;;;12.57;11.38;;;;;;;;;;4979675;28;20047;-82
2021/08/12 12:03:44;;;;;;;14.25;5.90;;;;;;;;;;4993978;28;20047;-82
2021/08/12 12:06:12;;;;;;;7.13;6.07;;;;;;;;;;4991201;28;20054;-83
2021/08/12 12:08:39;;;;;;;9.85;6.65;;;;;;;;;;4993613;28;20058;-83
2021/08/12 12:11:11;;;;;;;9.10;8.23;;;;;;;;;;4991342;28;20039;-82
2021/08/12 12:13:38;;;;;;;10.95;9.13;;;;;;;;;;4989073;28;20050;-82
2021/08/12 12:16:10;;;;;;;11.00;8.20;;;;;;;;;;4985378;28;20046;-82
2021/08/12 12:18:38;;;;;;;10.27;9.40;;;;;;;;;;4995924;28;20053;-82
2021/08/12 12:21:06;;;;;;;9.50;8.57;;;;;;;;;;4994681;28;20050;-83
2021/08/12 12:23:35;;;;;;;9.43;8.57;;;;;;;;;;4976848;28;20491;-81
2021/08/12 12:26:02;;;;;;;9.07;8.20;;;;;;;;;;4990270;28;20050;-81
2021/08/12 12:28:30;;;;;;;7.13;5.32;;;;;;;;;;4996030;28;20510;-82
2021/08/12 12:31:01;;;;;;;11.68;6.30;;;;;;;;;;4998514;28;20046;-81
2021/08/12 12:33:28;;;;;;;7.20;5.70;;;;;;;;;;4996020;28;20086;-82
2021/08/12 12:35:55;;;;;;;8.40;5.82;;;;;;;;;;4992194;28;20054;-81
2021/08/12 12:38:25;;;;;;;8.10;5.45;;;;;;;;;;4982081;28;20047;-82
2021/08/12 12:40:55;;;;;;;7.28;5.93;;;;;;;;;;4988550;28;20050;-82
2021/08/12 12:43:28;;;;;;;8.55;6.05;;;;;;;;;;4996390;28;20057;-82
2021/08/12 12:45:56;;;;;;;6.68;5.63;;;;;;;;;;4980173;28;20105;-82
2021/08/12 12:48:33;;;;;;;10.43;5.60;;;;;;;;;;4984794;28;20043;-82
2021/08/12 12:51:01;;;;;;;6.97;5.93;;;;;;;;;;4997340;28;20054;-82
2021/08/12 12:53:30;;;;;;;8.35;5.40;;;;;;;;;;4995745;28;20122;-82
2021/08/12 12:55:59;;;;;;;6.93;5.35;;;;;;;;;;4981598;28;20072;-82
2021/08/12 12:58:27;;;;;;;6.97;5.32;;;;;;;;;;4991710;28;20487;-82
2021/08/12 13:00:59;;;;;;;8.68;5.88;;;;;;;;;;4986387;28;20053;-82
2021/08/12 13:03:30;;;;;;;7.45;5.32;;;;;;;;;;4999411;28;20054;-81
2021/08/12 13:05:58;;;;;;;7.22;5.45;;;;;;;;;;4991832;28;20101;-82
2021/08/12 13:08:25;;;;;;;7.43;6.03;;;;;;;;;;4981911;28;20047;-82
2021/08/12 13:11:08;;;;;;;8.65;5.45;;;;;;;;;;4989261;28;20049;-82
2021/08/12 13:13:36;;;;;;;7.75;5.60;;;;;;;;;;4998544;28;20117;-82
2021/08/12 13:16:03;;;;;;;12.13;5.55;;;;;;;;;;4987748;28;20042;-82
2021/08/12 13:18:49;;;;;;;11.93;5.65;;;;;;;;;;5001341;28;20053;-83
2021/08/12 13:21:43;;;;;;;9.23;5.32;;;;;;;;;;4990889;28;20055;-82
2021/08/12 13:24:10;;;;;;;7.85;5.13;;;;;;;;;;4962757;28;20042;-83
2021/08/12 13:26:41;;;;;;;10.27;5.63;;;;;;;;;;4991639;28;20054;-82
2021/08/12 13:29:13;;;;;;;10.43;5.60;;;;;;;;;;4991072;28;20042;-83
2021/08/12 13:31:43;;;;;;;12.15;5.43;;;;;;;;;;4996643;28;20046;-82
2021/08/12 13:34:09;;;;;;;7.90;5.10;;;;;;;;;;4999083;28;20078;-82
2021/08/12 13:36:36;;;;;;;7.15;5.68;;;;;;;;;;4996760;28;20058;-82
2021/08/12 13:39:04;;;;;;;6.95;5.50;;;;;;;;;;4987043;28;20070;-82
2021/08/12 13:41:31;;;;;;;8.23;5.50;;;;;;;;;;4988499;28;20058;-82
2021/08/12 13:43:59;;;;;;;8.80;5.57;;;;;;;;;;4983972;28;20054;-82
2021/08/12 13:46:26;;;;;;;11.27;5.28;;;;;;;;;;4989534;28;20530;-82
2021/08/12 13:48:52;;;;;;;11.52;6.15;;;;;;;;;;4991613;28;20433;-82
2021/08/12 13:51:19;;;;;;;5.68;5.07;;;;;;;;;;4987980;28;20138;-82
2021/08/12 13:53:46;;;;;;;7.60;5.40;;;;;;;;;;4995700;28;20061;-82
2021/08/12 13:56:12;;;;;;;7.88;5.38;;;;;;;;;;4993609;28;20046;-82
2021/08/12 13:58:39;;;;;;;8.95;5.45;;;;;;;;;;4980550;28;20058;-82
2021/08/12 14:01:07;;;;;;;10.15;5.70;;;;;;;;;;4992717;28;20049;-82
2021/08/12 14:03:34;;;;;;;6.57;5.40;;;;;;;;;;4996001;28;20042;-81
2021/08/12 14:06:00;;;;;;;9.55;4.82;;;;;;;;;;4992851;28;20057;-81
2021/08/12 14:08:27;;;;;;;7.47;4.82;;;;;;;;;;4986454;28;20126;-81
2021/08/12 14:10:53;;;;;;;8.85;5.68;;;;;;;;;;4993070;28;20043;-81
2021/08/12 14:13:20;;;;;;;8.65;5.10;;;;;;;;;;4991351;28;20054;-81
2021/08/12 14:15:47;;;;;;;6.00;5.40;;;;;;;;;;4978258;28;20506;-82
2021/08/12 14:18:15;;;;;;;9.77;5.15;;;;;;;;;;4988769;28;20050;-81
2021/08/12 14:20:41;;;;;;;6.63;5.15;;;;;;;;;;4991184;28;20077;-82
2021/08/12 14:23:08;;;;;;;7.97;5.47;;;;;;;;;;4991332;28;20051;-82
2021/08/12 14:25:35;;;;;;;8.55;4.68;;;;;;;;;;4986662;28;20044;-82
2021/08/12 14:28:02;;;;;;;8.00;4.85;;;;;;;;;;4987088;28;20047;-82
2021/08/12 14:30:29;;;;;;;6.85;5.47;;;;;;;;;;4975771;28;20416;-82
2021/08/12 14:32:55;;;;;;;6.07;4.85;;;;;;;;;;4994535;28;20046;-82
2021/08/12 14:35:23;;;;;;;8.77;5.70;;;;;;;;;;4975803;28;20487;-82
2021/08/12 14:37:50;;;;;;;7.50;5.30;;;;;;;;;;4975918;28;20514;-82
2021/08/12 14:40:19;;;;;;;7.22;4.78;;;;;;;;;;4975272;28;20057;-82
2021/08/12 14:42:46;;;;;;;7.18;5.10;;;;;;;;;;4991700;28;20507;-82
2021/08/12 14:45:12;;;;;;;6.47;4.82;;;;;;;;;;4994317;28;20492;-82